createdAt,value
2022-11-17T00:00:22.320Z,3.20
2022-11-17T00:02:50.068Z,2.90
2022-11-17T00:05:19.298Z,2.50
2022-11-17T00:07:48.874Z,2.10
2022-11-17T00:10:17.658Z,2.30
2022-11-17T00:13:03.085Z,2.63
2022-11-17T00:15:30.937Z,2.10
2022-11-17T00:18:16.348Z,1.90
2022-11-17T00:21:02.974Z,1.80
2022-11-17T00:23:47.172Z,1.93
2022-11-17T00:26:15.936Z,1.70
2022-11-17T00:28:43.578Z,1.70
2022-11-17T00:31:30.149Z,1.80
2022-11-17T00:34:07.472Z,1.33
2022-11-17T00:36:39.324Z,1.60
2022-11-17T00:39:07.886Z,1.30
2022-11-17T00:41:35.888Z,1.30
2022-11-17T00:44:03.818Z,1.50
2022-11-17T00:46:31.860Z,1.27
2022-11-17T00:48:59.709Z,1.60
2022-11-17T00:51:27.498Z,1.30
2022-11-17T00:53:56.837Z,1.30
2022-11-17T00:56:25.529Z,1.60
2022-11-17T00:58:53.602Z,1.30
2022-11-17T01:01:21.754Z,1.40
2022-11-17T01:03:49.824Z,1.23
2022-11-17T01:06:20.286Z,1.30
2022-11-17T01:08:48.198Z,1.40
2022-11-17T01:11:18.916Z,1.00
2022-11-17T01:13:48.433Z,1.30
2022-11-17T01:16:17.979Z,1.70
2022-11-17T01:18:49.771Z,1.20
2022-11-17T01:21:19.714Z,1.60
2022-11-17T01:23:49.955Z,1.20
2022-11-17T01:26:20.865Z,1.23
2022-11-17T01:28:49.650Z,1.47
2022-11-17T01:31:19.379Z,1.40
2022-11-17T01:33:47.415Z,1.70
2022-11-17T01:36:17.681Z,1.30
2022-11-17T01:38:45.886Z,1.50
2022-11-17T01:41:16.641Z,1.10
2022-11-17T01:43:47.703Z,1.20
2022-11-17T01:46:26.275Z,1.10
2022-11-17T01:48:57.745Z,0.90
2022-11-17T01:51:26.084Z,1.47
2022-11-17T01:53:53.808Z,1.20
2022-11-17T01:56:28.202Z,0.97
2022-11-17T01:59:03.825Z,1.00
2022-11-17T02:01:32.369Z,1.50
2022-11-17T02:04:00.653Z,1.10
2022-11-17T02:06:33.158Z,1.10
2022-11-17T02:09:04.501Z,1.00
2022-11-17T02:11:36.054Z,1.10
2022-11-17T02:14:05.997Z,1.10
2022-11-17T02:16:33.630Z,1.10
2022-11-17T02:19:01.303Z,1.10
2022-11-17T02:22:04.666Z,0.90
2022-11-17T02:24:54.796Z,1.00
2022-11-17T02:27:46.120Z,1.00
2022-11-17T02:30:17.698Z,0.87
2022-11-17T02:32:58.843Z,0.97
2022-11-17T02:35:34.706Z,0.93
2022-11-17T02:38:12.730Z,0.90
2022-11-17T02:40:45.159Z,0.70
2022-11-17T02:43:41.900Z,0.90
2022-11-17T02:46:15.513Z,1.10
2022-11-17T02:48:47.303Z,1.03
2022-11-17T02:51:19.450Z,1.10
2022-11-17T02:53:47.921Z,0.93
2022-11-17T02:56:15.521Z,0.83
2022-11-17T02:58:43.185Z,1.20
2022-11-17T03:01:38.937Z,1.10
2022-11-17T03:04:38.129Z,1.30
2022-11-17T03:07:18.530Z,1.40
2022-11-17T03:09:53.901Z,1.10
2022-11-17T03:12:30.329Z,1.07
2022-11-17T03:15:05.499Z,1.27
2022-11-17T03:17:47.155Z,1.10
2022-11-17T03:20:20.623Z,0.93
2022-11-17T03:22:54.447Z,0.90
2022-11-17T03:25:28.105Z,0.80
2022-11-17T03:28:00.215Z,0.90
2022-11-17T03:30:34.610Z,1.30
2022-11-17T03:33:11.174Z,1.00
2022-11-17T03:35:45.116Z,0.80
2022-11-17T03:38:19.697Z,1.00
2022-11-17T03:40:49.924Z,1.00
2022-11-17T03:43:19.094Z,0.90
2022-11-17T03:45:50.582Z,0.83
2022-11-17T03:48:24.856Z,0.80
2022-11-17T03:50:58.139Z,0.83
2022-11-17T03:53:28.838Z,0.80
2022-11-17T03:56:02.253Z,0.80
2022-11-17T03:58:34.373Z,0.73
2022-11-17T04:01:06.782Z,0.90
2022-11-17T04:03:38.289Z,0.63
2022-11-17T04:06:06.420Z,0.80
2022-11-17T04:08:34.021Z,0.80
2022-11-17T04:11:21.510Z,1.00
2022-11-17T04:14:06.812Z,1.00
2022-11-17T04:16:34.370Z,0.70
2022-11-17T04:19:03.454Z,0.77
2022-11-17T04:21:31.078Z,0.80
2022-11-17T04:23:58.727Z,0.77
2022-11-17T04:26:44.053Z,0.97
2022-11-17T04:29:11.678Z,0.77
2022-11-17T04:31:39.290Z,0.77
2022-11-17T04:34:08.284Z,0.90
2022-11-17T04:36:37.784Z,0.80
2022-11-17T04:39:05.583Z,0.67
2022-11-17T04:41:52.986Z,0.87
2022-11-17T04:44:22.167Z,0.70
2022-11-17T04:46:49.868Z,0.73
2022-11-17T04:49:20.236Z,0.73
2022-11-17T04:51:48.462Z,0.70
2022-11-17T04:54:20.916Z,0.70
2022-11-17T04:56:49.081Z,0.90
2022-11-17T04:59:16.757Z,0.80
2022-11-17T05:01:44.663Z,0.70
2022-11-17T05:04:13.832Z,0.80
2022-11-17T05:06:44.663Z,0.80
2022-11-17T05:09:14.401Z,0.70
2022-11-17T05:12:00.495Z,0.70
2022-11-17T05:14:29.161Z,0.90
2022-11-17T05:17:11.592Z,0.60
2022-11-17T05:19:44.148Z,0.90
2022-11-17T05:22:35.018Z,1.10
2022-11-17T05:25:02.992Z,0.60
2022-11-17T05:27:30.733Z,0.80
2022-11-17T05:29:58.356Z,0.90
2022-11-17T05:32:26.193Z,0.70
2022-11-17T05:34:53.814Z,0.80
2022-11-17T05:37:22.747Z,1.00
2022-11-17T05:39:50.379Z,1.00
2022-11-17T05:42:20.716Z,0.70
2022-11-17T05:44:48.971Z,1.07
2022-11-17T05:47:16.569Z,0.80
2022-11-17T05:49:44.256Z,1.10
2022-11-17T05:52:11.955Z,0.80
2022-11-17T05:54:40.891Z,1.13
2022-11-17T05:57:13.065Z,1.00
2022-11-17T05:59:46.323Z,1.00
2022-11-17T06:02:19.019Z,1.10
2022-11-17T06:04:47.233Z,0.90
2022-11-17T06:07:14.986Z,1.27
2022-11-17T06:09:44.033Z,1.23
2022-11-17T06:12:12.744Z,1.00
2022-11-17T06:14:40.407Z,0.90
2022-11-17T06:17:21.768Z,1.10
2022-11-17T06:19:54.105Z,0.90
2022-11-17T06:22:21.750Z,1.60
2022-11-17T06:24:50.738Z,1.60
2022-11-17T06:27:18.418Z,1.40
2022-11-17T06:29:46.912Z,1.20
2022-11-17T06:32:15.414Z,1.30
2022-11-17T06:34:43.918Z,1.10
2022-11-17T06:37:12.261Z,1.50
2022-11-17T06:39:39.911Z,1.10
2022-11-17T06:42:08.870Z,1.30
2022-11-17T06:44:36.456Z,1.70
2022-11-17T06:47:04.063Z,1.60
2022-11-17T06:49:31.626Z,1.47
2022-11-17T06:51:59.236Z,1.30
2022-11-17T06:54:26.784Z,1.30
2022-11-17T06:56:55.390Z,1.40
2022-11-17T06:59:24.638Z,1.40
2022-11-17T07:01:52.224Z,1.60
2022-11-17T07:04:19.847Z,1.70
2022-11-17T07:06:47.454Z,1.60
2022-11-17T07:09:15.076Z,1.53
2022-11-17T07:11:42.693Z,1.50
2022-11-17T07:14:10.329Z,1.60
2022-11-17T07:16:39.319Z,1.70
2022-11-17T07:19:08.315Z,2.30
2022-11-17T07:21:35.961Z,1.53
2022-11-17T07:24:03.846Z,1.63
2022-11-17T07:26:31.499Z,1.40
2022-11-17T07:28:59.113Z,1.50
2022-11-17T07:31:26.766Z,1.27
2022-11-17T07:33:55.939Z,1.70
2022-11-17T07:36:23.865Z,1.20
2022-11-17T07:38:51.460Z,1.80
2022-11-17T07:41:19.141Z,1.60
2022-11-17T07:43:46.706Z,1.67
2022-11-17T07:46:15.858Z,1.70
2022-11-17T07:48:44.412Z,1.70
2022-11-17T07:51:14.068Z,1.47
2022-11-17T07:53:41.683Z,1.30
2022-11-17T07:56:11.381Z,1.50
2022-11-17T07:58:39.705Z,1.30
2022-11-17T08:01:08.568Z,1.63
2022-11-17T08:03:36.233Z,3.60
2022-11-17T08:06:04.330Z,1.50
2022-11-17T08:08:34.304Z,1.70
2022-11-17T08:11:03.705Z,1.70
2022-11-17T08:13:31.371Z,1.53
2022-11-17T08:15:59.965Z,1.50
2022-11-17T08:18:28.314Z,1.20
2022-11-17T08:21:02.419Z,1.43
2022-11-17T08:23:30.066Z,1.27
2022-11-17T08:25:59.151Z,1.13
2022-11-17T08:28:27.023Z,1.47
2022-11-17T08:30:54.605Z,1.63
2022-11-17T08:33:22.302Z,2.70
2022-11-17T08:35:50.029Z,1.60
2022-11-17T08:38:18.308Z,2.20
2022-11-17T08:40:47.647Z,1.57
2022-11-17T08:43:16.607Z,2.10
2022-11-17T08:45:44.262Z,3.03
2022-11-17T08:48:11.925Z,2.47
2022-11-17T08:50:39.613Z,2.80
2022-11-17T08:53:07.202Z,2.47
2022-11-17T08:55:40.886Z,2.20
2022-11-17T08:58:09.226Z,2.40
2022-11-17T09:00:38.512Z,2.37
2022-11-17T09:03:07.460Z,2.97
2022-11-17T09:05:39.323Z,3.77
2022-11-17T09:08:37.989Z,2.43
2022-11-17T09:10:55.037Z,2.13
2022-11-17T09:13:22.915Z,3.20
2022-11-17T09:15:51.955Z,2.10
2022-11-17T09:18:19.567Z,2.17
2022-11-17T09:20:47.183Z,2.00
2022-11-17T09:23:14.835Z,2.10
2022-11-17T09:25:42.510Z,1.60
2022-11-17T09:28:10.135Z,1.50
2022-11-17T09:30:37.915Z,1.60
2022-11-17T09:33:06.924Z,1.60
2022-11-17T09:35:34.559Z,1.67
2022-11-17T09:38:02.368Z,1.60
2022-11-17T09:40:37.453Z,1.60
2022-11-17T09:43:09.654Z,1.53
2022-11-17T09:45:40.209Z,1.63
2022-11-17T09:48:40.152Z,1.70
2022-11-17T09:51:05.746Z,1.57
2022-11-17T09:53:44.273Z,2.23
2022-11-17T09:56:14.519Z,1.33
2022-11-17T09:58:46.910Z,1.57
2022-11-17T10:01:17.055Z,1.90
2022-11-17T10:03:48.255Z,1.90
2022-11-17T10:06:20.397Z,1.60
2022-11-17T10:08:58.208Z,1.43
2022-11-17T10:11:33.657Z,1.83
2022-11-17T10:14:13.121Z,1.77
2022-11-17T10:16:43.679Z,1.50
2022-11-17T10:19:18.918Z,1.63
2022-11-17T10:21:49.709Z,1.60
2022-11-17T10:24:36.027Z,1.00
2022-11-17T10:27:06.141Z,1.43
2022-11-17T10:29:33.839Z,1.57
2022-11-17T10:32:06.735Z,1.10
2022-11-17T10:34:41.680Z,1.33
2022-11-17T10:37:25.768Z,1.40
2022-11-17T10:40:10.049Z,1.10
2022-11-17T10:42:37.687Z,1.10
2022-11-17T10:45:07.235Z,0.80
2022-11-17T10:47:39.210Z,1.10
2022-11-17T10:50:25.199Z,0.70
2022-11-17T10:52:54.074Z,1.40
2022-11-17T10:55:26.199Z,1.00
2022-11-17T10:57:58.260Z,1.17
2022-11-17T11:00:30.222Z,0.90
2022-11-17T11:03:07.151Z,1.07
2022-11-17T11:05:36.151Z,1.20
2022-11-17T11:08:19.537Z,1.20
2022-11-17T11:10:51.502Z,1.13
2022-11-17T11:13:29.431Z,1.40
2022-11-17T11:15:57.162Z,0.83
2022-11-17T11:18:29.845Z,1.00
2022-11-17T11:21:11.235Z,1.00
2022-11-17T11:23:47.802Z,1.00
2022-11-17T11:26:29.937Z,1.13
2022-11-17T11:29:06.636Z,1.13
2022-11-17T11:31:47.707Z,1.17
2022-11-17T11:34:35.548Z,1.00
2022-11-17T11:37:10.560Z,0.80
2022-11-17T11:39:51.689Z,0.90
2022-11-17T11:42:43.313Z,1.00
2022-11-17T11:45:45.607Z,0.90
2022-11-17T11:48:17.901Z,0.90
2022-11-17T11:50:58.874Z,1.10
2022-11-17T11:53:34.041Z,0.83
2022-11-17T11:56:10.471Z,1.00
2022-11-17T11:58:45.922Z,1.10
2022-11-17T12:01:17.180Z,1.20
2022-11-17T12:03:50.767Z,0.97
2022-11-17T12:06:42.680Z,0.80
2022-11-17T12:09:46.364Z,1.00
2022-11-17T12:12:17.419Z,1.47
2022-11-17T12:15:14.997Z,1.20
2022-11-17T12:18:00.339Z,1.33
2022-11-17T12:21:01.140Z,1.00
2022-11-17T12:23:55.030Z,1.20
2022-11-17T12:26:29.208Z,1.00
2022-11-17T12:29:26.243Z,1.13
2022-11-17T12:31:55.424Z,1.10
2022-11-17T12:34:26.275Z,1.00
2022-11-17T12:37:21.796Z,1.10
2022-11-17T12:39:55.409Z,1.00
2022-11-17T12:42:25.018Z,0.90
2022-11-17T12:45:00.373Z,0.83
2022-11-17T12:47:30.463Z,0.70
2022-11-17T12:50:32.895Z,1.43
2022-11-17T12:53:27.297Z,0.90
2022-11-17T12:56:43.268Z,1.00
2022-11-17T12:59:46.808Z,1.00
2022-11-17T13:02:34.026Z,0.70
2022-11-17T13:05:06.009Z,0.83
2022-11-17T13:07:33.651Z,1.13
2022-11-17T13:10:02.721Z,1.13
2022-11-17T13:12:32.034Z,0.80
2022-11-17T13:15:03.874Z,1.03
2022-11-17T13:17:34.327Z,1.00
2022-11-17T13:20:04.114Z,1.00
2022-11-17T13:22:32.421Z,1.00
2022-11-17T13:25:14.010Z,1.30
2022-11-17T13:27:49.244Z,1.00
2022-11-17T13:30:25.593Z,1.07
2022-11-17T13:32:53.450Z,1.20
2022-11-17T13:35:23.462Z,0.90
2022-11-17T13:38:06.137Z,0.80
2022-11-17T13:40:36.413Z,1.23
2022-11-17T13:43:05.709Z,0.80
2022-11-17T13:45:34.756Z,1.23
2022-11-17T13:48:02.450Z,0.97
2022-11-17T13:50:38.193Z,1.07
2022-11-17T13:53:18.450Z,1.10
2022-11-17T13:55:47.592Z,1.50
2022-11-17T13:58:26.949Z,1.00
2022-11-17T14:00:58.381Z,1.27
2022-11-17T14:03:38.254Z,1.17
2022-11-17T14:06:07.588Z,0.90
2022-11-17T14:08:36.732Z,1.30
2022-11-17T14:11:22.198Z,1.40
2022-11-17T14:13:52.245Z,0.90
2022-11-17T14:16:27.559Z,1.10
2022-11-17T14:19:03.622Z,1.10
2022-11-17T14:21:32.287Z,1.20
2022-11-17T14:24:10.532Z,1.30
2022-11-17T14:26:44.493Z,1.20
2022-11-17T14:29:13.409Z,1.00
2022-11-17T14:31:43.153Z,1.00
2022-11-17T14:34:10.794Z,1.20
2022-11-17T14:36:40.221Z,1.30
2022-11-17T14:39:14.788Z,1.33
2022-11-17T14:41:42.758Z,1.10
2022-11-17T14:44:10.417Z,1.10
2022-11-17T14:46:38.376Z,1.30
2022-11-17T14:49:07.824Z,1.47
2022-11-17T14:51:36.298Z,1.40
2022-11-17T14:54:04.139Z,1.20
2022-11-17T14:56:31.719Z,1.10
2022-11-17T14:59:00.631Z,1.00
2022-11-17T15:01:31.041Z,1.53
2022-11-17T15:04:07.000Z,1.20
2022-11-17T15:06:44.724Z,1.20
2022-11-17T15:09:15.763Z,1.20
2022-11-17T15:11:43.372Z,1.10
2022-11-17T15:14:11.831Z,1.00
2022-11-17T15:16:39.487Z,1.00
2022-11-17T15:19:07.271Z,1.13
2022-11-17T15:21:34.878Z,1.10
2022-11-17T15:24:05.048Z,1.50
2022-11-17T15:26:34.087Z,1.10
2022-11-17T15:29:01.677Z,1.40
2022-11-17T15:31:29.353Z,1.30
2022-11-17T15:33:57.320Z,1.10
2022-11-17T15:36:25.316Z,1.47
2022-11-17T15:38:54.023Z,1.20
2022-11-17T15:41:22.964Z,0.93
2022-11-17T15:43:50.563Z,1.37
2022-11-17T15:46:19.952Z,1.30
2022-11-17T15:48:49.160Z,1.27
2022-11-17T15:51:18.634Z,1.70
2022-11-17T15:53:47.812Z,1.60
2022-11-17T15:56:18.826Z,2.07
2022-11-17T15:58:49.143Z,2.00
2022-11-17T16:01:18.578Z,2.10
2022-11-17T16:03:46.487Z,1.57
2022-11-17T16:06:14.173Z,1.57
2022-11-17T16:08:42.085Z,1.67
2022-11-17T16:11:11.037Z,1.87
2022-11-17T16:13:39.085Z,1.37
2022-11-17T16:16:09.348Z,1.80
2022-11-17T16:18:38.555Z,2.13
2022-11-17T16:21:08.481Z,1.87
2022-11-17T16:23:40.059Z,2.30
2022-11-17T16:26:07.934Z,1.90
2022-11-17T16:28:35.887Z,2.00
2022-11-17T16:31:14.811Z,1.80
2022-11-17T16:33:47.271Z,2.23
2022-11-17T16:36:14.946Z,2.17
2022-11-17T16:38:59.866Z,2.47
2022-11-17T16:41:30.038Z,2.47
2022-11-17T16:43:57.641Z,2.00
2022-11-17T16:46:28.707Z,2.80
2022-11-17T16:48:57.355Z,2.70
2022-11-17T16:51:25.133Z,2.83
2022-11-17T16:53:56.836Z,2.53
2022-11-17T16:56:24.732Z,2.57
2022-11-17T16:58:52.744Z,3.17
2022-11-17T17:01:22.147Z,3.10
2022-11-17T17:03:55.922Z,3.40
2022-11-17T17:06:23.525Z,3.50
2022-11-17T17:08:54.950Z,3.20
2022-11-17T17:11:23.193Z,2.97
2022-11-17T17:13:50.846Z,4.00
2022-11-17T17:16:20.620Z,2.93
2022-11-17T17:18:48.493Z,4.03
2022-11-17T17:21:19.560Z,2.97
2022-11-17T17:23:47.180Z,3.70
2022-11-17T17:26:18.223Z,4.77
2022-11-17T17:28:47.004Z,3.70
2022-11-17T17:31:21.016Z,3.80
2022-11-17T17:33:50.657Z,3.50
2022-11-17T17:36:21.513Z,3.00
2022-11-17T17:38:55.027Z,2.90
2022-11-17T17:41:25.048Z,2.57
2022-11-17T17:43:57.462Z,2.43
2022-11-17T17:46:25.616Z,3.00
2022-11-17T17:48:53.492Z,2.70
2022-11-17T17:51:25.013Z,3.23
2022-11-17T17:53:52.728Z,3.33
2022-11-17T17:56:22.055Z,3.67
2022-11-17T17:58:50.786Z,4.30
2022-11-17T18:01:20.917Z,4.27
2022-11-17T18:03:50.197Z,3.63
2022-11-17T18:06:20.995Z,4.47
2022-11-17T18:08:51.295Z,4.20
2022-11-17T18:11:20.476Z,4.30
2022-11-17T18:13:49.834Z,4.03
2022-11-17T18:16:19.541Z,3.90
2022-11-17T18:18:47.163Z,3.30
2022-11-17T18:21:17.151Z,3.47
2022-11-17T18:23:45.306Z,3.83
2022-11-17T18:26:16.616Z,3.83
2022-11-17T18:28:46.732Z,3.50
2022-11-17T18:31:22.444Z,3.40
2022-11-17T18:33:51.835Z,3.03
2022-11-17T18:36:19.462Z,3.20
2022-11-17T18:38:47.530Z,3.17
2022-11-17T18:41:18.381Z,3.10
2022-11-17T18:43:46.495Z,3.23
2022-11-17T18:46:15.570Z,3.63
2022-11-17T18:48:46.365Z,3.67
2022-11-17T18:51:19.847Z,3.70
2022-11-17T18:53:49.160Z,3.87
2022-11-17T18:56:20.152Z,3.70
2022-11-17T18:58:48.093Z,3.67
2022-11-17T19:01:17.863Z,3.60
2022-11-17T19:03:48.052Z,3.63
2022-11-17T19:06:16.910Z,3.77
2022-11-17T19:08:45.135Z,3.63
2022-11-17T19:11:13.324Z,3.47
2022-11-17T19:13:43.357Z,3.73
2022-11-17T19:16:13.184Z,4.07
2022-11-17T19:18:41.223Z,4.50
2022-11-17T19:21:11.422Z,4.57
2022-11-17T19:23:40.571Z,4.10
2022-11-17T19:26:10.548Z,4.50
2022-11-17T19:28:39.275Z,3.87
2022-11-17T19:31:10.874Z,3.57
2022-11-17T19:33:40.215Z,3.23
2022-11-17T19:36:10.199Z,3.87
2022-11-17T19:38:39.131Z,3.97
2022-11-17T19:41:08.452Z,4.80
2022-11-17T19:43:43.373Z,3.80
2022-11-17T19:46:15.994Z,3.20
2022-11-17T19:48:44.407Z,3.90
2022-11-17T19:51:14.891Z,3.43
2022-11-17T19:53:42.581Z,3.33
2022-11-17T19:56:10.611Z,3.20
2022-11-17T19:58:38.399Z,2.80
2022-11-17T20:01:11.460Z,3.00
2022-11-17T20:03:49.869Z,3.60
2022-11-17T20:06:37.744Z,3.83
2022-11-17T20:09:25.831Z,3.67
2022-11-17T20:11:56.809Z,3.80
2022-11-17T20:14:49.515Z,3.83
2022-11-17T20:17:25.601Z,4.73
2022-11-17T20:19:55.475Z,3.47
2022-11-17T20:22:23.254Z,4.07
2022-11-17T20:24:50.938Z,3.87
2022-11-17T20:27:18.506Z,3.90
2022-11-17T20:29:46.176Z,3.63
2022-11-17T20:32:13.797Z,3.83
2022-11-17T20:34:41.388Z,4.50
2022-11-17T20:37:10.401Z,3.90
2022-11-17T20:39:37.970Z,3.70
2022-11-17T20:42:05.578Z,4.20
2022-11-17T20:44:33.164Z,3.50
2022-11-17T20:47:00.756Z,3.57
2022-11-17T20:49:28.939Z,5.17
2022-11-17T20:51:56.570Z,5.37
2022-11-17T20:54:25.548Z,5.17
2022-11-17T20:56:53.586Z,4.57
2022-11-17T20:59:21.492Z,5.43
2022-11-17T21:01:50.458Z,4.57
2022-11-17T21:04:18.059Z,4.30
2022-11-17T21:06:45.671Z,4.03
2022-11-17T21:09:13.278Z,4.03
2022-11-17T21:11:57.306Z,4.07
2022-11-17T21:14:26.768Z,4.00
2022-11-17T21:16:57.380Z,4.33
2022-11-17T21:19:25.392Z,3.37
2022-11-17T21:21:53.661Z,3.03
2022-11-17T21:24:21.771Z,3.00
2022-11-17T21:26:53.387Z,3.07
2022-11-17T21:29:21.244Z,3.00
2022-11-17T21:31:49.116Z,3.10
2022-11-17T21:34:17.820Z,2.97
2022-11-17T21:36:45.420Z,2.97
2022-11-17T21:39:18.497Z,3.17
2022-11-17T21:41:46.563Z,2.83
2022-11-17T21:44:15.727Z,2.80
2022-11-17T21:46:43.499Z,2.93
2022-11-17T21:49:11.126Z,3.00
2022-11-17T21:51:39.289Z,3.00
2022-11-17T21:54:08.112Z,3.00
2022-11-17T21:56:36.487Z,2.47
2022-11-17T21:59:06.578Z,2.70
2022-11-17T22:01:36.540Z,2.87
2022-11-17T22:04:04.888Z,3.63
2022-11-17T22:06:32.526Z,3.17
2022-11-17T22:09:00.830Z,3.03
2022-11-17T22:11:39.020Z,3.03
2022-11-17T22:14:09.415Z,3.37
2022-11-17T22:16:40.276Z,3.60
2022-11-17T22:19:09.076Z,3.40
2022-11-17T22:21:38.292Z,3.60
2022-11-17T22:24:07.704Z,3.17
2022-11-17T22:26:35.868Z,3.50
2022-11-17T22:29:03.551Z,3.03
2022-11-17T22:31:31.307Z,3.00
2022-11-17T22:34:00.349Z,2.13
2022-11-17T22:36:28.031Z,2.43
2022-11-17T22:38:55.712Z,2.00
2022-11-17T22:41:24.526Z,2.10
2022-11-17T22:43:53.277Z,1.87
2022-11-17T22:46:22.595Z,1.53
2022-11-17T22:48:50.701Z,0.87
2022-11-17T22:51:34.127Z,1.50
2022-11-17T22:54:02.036Z,1.00
2022-11-17T22:56:29.593Z,1.00
2022-11-17T22:58:59.863Z,0.90
2022-11-17T23:01:27.885Z,0.87
2022-11-17T23:03:55.582Z,1.03
2022-11-17T23:06:24.597Z,0.90
2022-11-17T23:08:52.423Z,0.90
2022-11-17T23:11:36.459Z,0.90
2022-11-17T23:14:05.348Z,0.70
2022-11-17T23:16:33.238Z,1.00
2022-11-17T23:19:01.259Z,0.90
2022-11-17T23:21:30.326Z,0.80
2022-11-17T23:23:58.035Z,1.23
2022-11-17T23:26:25.742Z,1.30
2022-11-17T23:28:53.393Z,0.80
2022-11-17T23:31:21.056Z,1.13
2022-11-17T23:33:49.473Z,0.97
2022-11-17T23:36:19.118Z,1.03
2022-11-17T23:38:48.856Z,1.80
2022-11-17T23:41:19.382Z,1.10
2022-11-17T23:43:47.564Z,1.40
2022-11-17T23:46:17.475Z,0.80
2022-11-17T23:48:45.974Z,1.20
2022-11-17T23:51:15.781Z,0.90
2022-11-17T23:53:43.547Z,0.90
2022-11-17T23:56:13.237Z,1.30
2022-11-17T23:58:41.354Z,0.73
